CDT,Max TemperatureF,Mean TemperatureF,Min TemperatureF,Max Dew PointF,MeanDew PointF,Min DewpointF,Max Humidity, Mean Humidity, Min Humidity, Max Sea Level PressureIn, Mean Sea Level PressureIn, Min Sea Level PressureIn, Max VisibilityMiles, Mean VisibilityMiles, Min VisibilityMiles, Max Wind SpeedMPH, Mean Wind SpeedMPH, Max Gust SpeedMPH,PrecipitationIn, CloudCover, Events, WindDirDegrees
2012-3-1,34,30,27,33,30,26,96,92,85,29.79,29.75,29.69,10,5,0,10,5,,0.00,7,Fog-Snow,205
2012-3-2,34,24,14,32,22,12,94,86,71,29.73,29.67,29.62,10,7,0,21,6,24,0.00,3,Fog,261
2012-3-3,24,20,16,20,14,11,87,80,73,29.86,29.73,29.63,10,8,2,22,19,30,0.00,5,Snow,283
2012-3-4,24,12,0,17,7,-3,88,81,68,30.02,29.90,29.85,10,10,4,10,5,,0.00,3,Snow,280
2012-3-5,36,21,6,30,17,2,94,85,72,30.16,30.07,29.90,10,8,0,14,5,22,0.00,3,Snow,167
2012-3-6,49,39,29,41,33,25,90,78,68,29.77,29.60,29.51,10,10,10,10,7,20,0.00,0,,129
2012-3-7,41,34,27,40,32,23,94,86,74,29.94,29.66,29.51,10,9,2,23,10,30,0.00,5,,294
2012-3-8,37,28,20,30,23,18,90,78,66,30.19,30.12,30.01,10,10,10,25,14,34,0.00,2,,271
2012-3-9,34,24,14,25,13,6,79,64,53,30.58,30.47,30.29,10,10,10,15,8,21,0.00,1,,120
2012-3-10,60,47,34,43,33,26,76,60,51,30.04,29.92,29.88,10,10,10,16,9,21,0.00,0,,198
2012-3-11,60,48,36,48,38,32,83,70,54,29.94,29.90,29.81,10,10,10,15,7,22,0.00,2,Rain,161
2012-3-12,54,48,41,50,45,39,97,92,81,29.83,29.67,29.62,10,6,0,15,6,20,0.00,7,Fog-Rain,198
2012-3-13,67,50,32,50,41,31,97,77,47,30.02,29.93,29.80,10,10,5,18,5,23,0.00,0,,134
2012-3-14,72,57,42,51,45,38,94,70,31,29.90,29.78,29.69,10,9,5,13,7,21,0.00,0,,347
2012-3-15,59,50,40,33,27,23,70,51,43,30.04,29.99,29.92,10,10,10,15,6,18,0.00,0,,34
2012-3-16,79,58,37,63,61,55,100,67,55,29.95,29.88,29.77,10,8,0,13,5,16,0.02,2,Fog,115
2012-3-17,77,66,54,65,60,54,99,88,65,29.78,29.75,29.70,10,7,3,16,7,25,0.00,4,,156
2012-3-18,79,70,61,63,61,58,94,79,53,29.75,29.71,29.63,10,10,10,18,10,31,0.00,5,,150
2012-3-19,79,70,61,64,61,59,97,77,53,29.69,29.65,29.54,10,10,3,22,12,29,0.23,4,Rain-Thunderstorm,152
2012-3-20,60,57,54,58,55,54,100,93,82,29.93,29.82,29.69,10,9,5,12,4,16,0.00,6,Rain,200
2012-3-21,61,56,51,56,54,51,100,95,79,30.03,29.96,29.87,10,6,1,10,3,,0.05,8,Rain,24
2012-3-22,64,60,55,62,58,55,100,98,91,30.07,30.01,29.94,10,6,2,13,7,,0.25,8,Rain,63
2012-3-23,69,62,55,59,57,55,100,86,65,29.97,29.94,29.89,10,6,0,7,2,,0.01,6,Fog,274
2012-3-24,69,60,51,60,56,52,100,90,67,29.98,29.95,29.90,10,4,0,8,2,,0.00,6,Fog,352
2012-3-25,56,46,37,46,38,34,95,79,45,30.21,30.16,30.08,10,10,10,15,10,18,0.00,4,,5
2012-3-26,49,44,39,40,35,30,87,76,61,30.22,30.11,29.89,10,10,4,34,15,43,0.09,7,Thunderstorm,96
2012-3-27,66,54,41,51,44,35,85,68,48,29.83,29.65,29.56,10,10,10,30,19,39,0.00,3,Thunderstorm,199
2012-3-28,54,45,36,41,38,35,97,78,61,30.06,29.98,29.84,10,10,10,16,12,24,0.00,3,,300
2012-3-29,61,50,39,45,39,35,88,71,53,30.05,29.95,29.80,10,10,10,22,11,26,0.00,1,,96
2012-3-30,59,54,49,51,48,47,97,91,74,29.81,29.77,29.74,10,9,7,9,7,,0.00,8,,114
2012-3-31,54,50,45,52,49,44,100,95,89,29.83,29.75,29.70,5,4,1,17,12,23,0.00,8,,128